sensor_id;sensor_type;location;lat;lon;timestamp;pressure;altitude;pressure_sealevel;temperature;humidity
74790;BME280;63318;52.406;13.416;2024-01-30T00:00:25;102648.24;;;-0.36;77.90
74790;BME280;63318;52.406;13.416;2024-01-30T00:02:54;102645.15;;;-0.38;78.16
74790;BME280;63318;52.406;13.416;2024-01-30T00:05:22;102641.17;;;-0.40;78.24
74790;BME280;63318;52.406;13.416;2024-01-30T00:07:50;102634.40;;;-0.41;78.26
74790;BME280;63318;52.406;13.416;2024-01-30T00:10:18;102630.36;;;-0.43;78.03
74790;BME280;63318;52.406;13.416;2024-01-30T00:12:47;102633.46;;;-0.44;78.42
74790;BME280;63318;52.406;13.416;2024-01-30T00:15:15;102633.23;;;-0.46;78.23
74790;BME280;63318;52.406;13.416;2024-01-30T00:17:44;102633.76;;;-0.47;78.40
74790;BME280;63318;52.406;13.416;2024-01-30T00:20:12;102637.34;;;-0.48;78.09
74790;BME280;63318;52.406;13.416;2024-01-30T00:22:40;102640.39;;;-0.50;78.41
74790;BME280;63318;52.406;13.416;2024-01-30T00:25:09;102640.35;;;-0.51;78.40
74790;BME280;63318;52.406;13.416;2024-01-30T00:27:38;102638.70;;;-0.53;78.17
74790;BME280;63318;52.406;13.416;2024-01-30T00:30:08;102637.21;;;-0.54;78.53
74790;BME280;63318;52.406;13.416;2024-01-30T00:32:36;102633.96;;;-0.56;78.54
74790;BME280;63318;52.406;13.416;2024-01-30T00:35:06;102634.18;;;-0.57;78.23
74790;BME280;63318;52.406;13.416;2024-01-30T00:37:34;102636.93;;;-0.59;78.74
74790;BME280;63318;52.406;13.416;2024-01-30T00:40:03;102638.11;;;-0.59;78.41
74790;BME280;63318;52.406;13.416;2024-01-30T00:42:31;102632.14;;;-0.61;78.66
74790;BME280;63318;52.406;13.416;2024-01-30T00:44:59;102628.60;;;-0.63;78.86
74790;BME280;63318;52.406;13.416;2024-01-30T00:47:28;102631.86;;;-0.64;78.81
74790;BME280;63318;52.406;13.416;2024-01-30T00:49:56;102630.45;;;-0.64;78.65
74790;BME280;63318;52.406;13.416;2024-01-30T00:52:24;102627.23;;;-0.65;78.87
74790;BME280;63318;52.406;13.416;2024-01-30T00:54:52;102623.14;;;-0.66;78.94
74790;BME280;63318;52.406;13.416;2024-01-30T00:57:21;102625.57;;;-0.67;78.99
74790;BME280;63318;52.406;13.416;2024-01-30T00:59:50;102628.73;;;-0.67;78.82
74790;BME280;63318;52.406;13.416;2024-01-30T01:02:18;102626.43;;;-0.68;78.87
74790;BME280;63318;52.406;13.416;2024-01-30T01:04:46;102626.72;;;-0.69;78.92
74790;BME280;63318;52.406;13.416;2024-01-30T01:07:15;102629.09;;;-0.70;78.86
74790;BME280;63318;52.406;13.416;2024-01-30T01:09:43;102630.48;;;-0.71;78.93
74790;BME280;63318;52.406;13.416;2024-01-30T01:12:11;102624.11;;;-0.72;78.69
74790;BME280;63318;52.406;13.416;2024-01-30T01:14:40;102627.55;;;-0.72;78.98
74790;BME280;63318;52.406;13.416;2024-01-30T01:17:08;102628.64;;;-0.72;78.77
74790;BME280;63318;52.406;13.416;2024-01-30T01:19:36;102623.66;;;-0.72;78.94
74790;BME280;63318;52.406;13.416;2024-01-30T01:22:05;102624.88;;;-0.71;78.86
74790;BME280;63318;52.406;13.416;2024-01-30T01:24:33;102624.36;;;-0.69;79.26
74790;BME280;63318;52.406;13.416;2024-01-30T01:27:02;102623.21;;;-0.68;79.10
74790;BME280;63318;52.406;13.416;2024-01-30T01:29:30;102624.59;;;-0.68;78.44
74790;BME280;63318;52.406;13.416;2024-01-30T01:31:58;102627.80;;;-0.67;79.07
74790;BME280;63318;52.406;13.416;2024-01-30T01:34:26;102629.00;;;-0.67;78.87
74790;BME280;63318;52.406;13.416;2024-01-30T01:36:55;102628.50;;;-0.65;78.62
74790;BME280;63318;52.406;13.416;2024-01-30T01:39:23;102627.66;;;-0.64;78.91
74790;BME280;63318;52.406;13.416;2024-01-30T01:41:52;102625.22;;;-0.63;79.00
74790;BME280;63318;52.406;13.416;2024-01-30T01:44:20;102621.61;;;-0.62;79.06
74790;BME280;63318;52.406;13.416;2024-01-30T01:46:49;102622.77;;;-0.60;78.94
74790;BME280;63318;52.406;13.416;2024-01-30T01:49:17;102625.79;;;-0.60;78.91
74790;BME280;63318;52.406;13.416;2024-01-30T01:51:47;102620.85;;;-0.60;78.81
74790;BME280;63318;52.406;13.416;2024-01-30T01:54:17;102621.88;;;-0.59;78.72
74790;BME280;63318;52.406;13.416;2024-01-30T01:56:45;102617.61;;;-0.60;78.75
74790;BME280;63318;52.406;13.416;2024-01-30T01:59:14;102625.23;;;-0.61;78.85
74790;BME280;63318;52.406;13.416;2024-01-30T02:01:43;102620.47;;;-0.63;78.92
74790;BME280;63318;52.406;13.416;2024-01-30T02:04:11;102615.95;;;-0.65;78.92
74790;BME280;63318;52.406;13.416;2024-01-30T02:06:39;102618.35;;;-0.67;79.09
74790;BME280;63318;52.406;13.416;2024-01-30T02:09:08;102613.83;;;-0.70;79.26
74790;BME280;63318;52.406;13.416;2024-01-30T02:11:36;102615.30;;;-0.72;79.14
74790;BME280;63318;52.406;13.416;2024-01-30T02:14:05;102616.02;;;-0.73;79.11
74790;BME280;63318;52.406;13.416;2024-01-30T02:16:33;102612.81;;;-0.76;79.20
74790;BME280;63318;52.406;13.416;2024-01-30T02:19:02;102614.18;;;-0.79;79.12
74790;BME280;63318;52.406;13.416;2024-01-30T02:21:30;102618.52;;;-0.80;79.49
74790;BME280;63318;52.406;13.416;2024-01-30T02:24:00;102616.52;;;-0.82;79.27
74790;BME280;63318;52.406;13.416;2024-01-30T02:26:29;102619.18;;;-0.85;79.40
74790;BME280;63318;52.406;13.416;2024-01-30T02:28:57;102618.48;;;-0.87;79.51
74790;BME280;63318;52.406;13.416;2024-01-30T02:31:26;102617.09;;;-0.89;79.31
74790;BME280;63318;52.406;13.416;2024-01-30T02:33:54;102616.91;;;-0.91;79.48
74790;BME280;63318;52.406;13.416;2024-01-30T02:36:22;102623.06;;;-0.92;79.11
74790;BME280;63318;52.406;13.416;2024-01-30T02:38:51;102620.95;;;-0.93;79.35
74790;BME280;63318;52.406;13.416;2024-01-30T02:41:19;102618.79;;;-0.95;79.27
74790;BME280;63318;52.406;13.416;2024-01-30T02:43:47;102619.10;;;-0.96;79.57
74790;BME280;63318;52.406;13.416;2024-01-30T02:46:15;102616.64;;;-0.97;79.49
74790;BME280;63318;52.406;13.416;2024-01-30T02:48:43;102612.40;;;-0.98;79.78
74790;BME280;63318;52.406;13.416;2024-01-30T02:51:12;102613.37;;;-0.99;79.61
74790;BME280;63318;52.406;13.416;2024-01-30T02:53:40;102610.67;;;-0.99;79.91
74790;BME280;63318;52.406;13.416;2024-01-30T02:56:08;102611.31;;;-1.00;79.41
74790;BME280;63318;52.406;13.416;2024-01-30T02:58:37;102612.91;;;-1.00;79.78
74790;BME280;63318;52.406;13.416;2024-01-30T03:01:05;102608.38;;;-1.00;79.87
74790;BME280;63318;52.406;13.416;2024-01-30T03:03:33;102607.52;;;-1.00;79.88
74790;BME280;63318;52.406;13.416;2024-01-30T03:06:01;102602.45;;;-1.00;79.60
74790;BME280;63318;52.406;13.416;2024-01-30T03:08:30;102602.83;;;-1.01;79.94
74790;BME280;63318;52.406;13.416;2024-01-30T03:10:58;102599.84;;;-1.00;79.81
74790;BME280;63318;52.406;13.416;2024-01-30T03:13:26;102599.84;;;-1.00;79.87
74790;BME280;63318;52.406;13.416;2024-01-30T03:15:54;102596.46;;;-0.99;80.27
74790;BME280;63318;52.406;13.416;2024-01-30T03:18:23;102591.90;;;-0.99;79.84
74790;BME280;63318;52.406;13.416;2024-01-30T03:20:51;102591.70;;;-0.99;79.97
74790;BME280;63318;52.406;13.416;2024-01-30T03:23:19;102592.19;;;-0.98;80.22
74790;BME280;63318;52.406;13.416;2024-01-30T03:25:47;102593.71;;;-0.97;80.46
74790;BME280;63318;52.406;13.416;2024-01-30T03:28:15;102594.21;;;-0.96;80.17
74790;BME280;63318;52.406;13.416;2024-01-30T03:30:44;102590.09;;;-0.95;80.29
74790;BME280;63318;52.406;13.416;2024-01-30T03:33:12;102590.40;;;-0.95;80.01
74790;BME280;63318;52.406;13.416;2024-01-30T03:35:40;102588.91;;;-0.94;80.27
74790;BME280;63318;52.406;13.416;2024-01-30T03:38:08;102584.70;;;-0.94;80.14
74790;BME280;63318;52.406;13.416;2024-01-30T03:40:37;102587.78;;;-0.94;80.17
74790;BME280;63318;52.406;13.416;2024-01-30T03:43:05;102583.50;;;-0.95;80.29
74790;BME280;63318;52.406;13.416;2024-01-30T03:45:33;102582.32;;;-0.96;80.36
74790;BME280;63318;52.406;13.416;2024-01-30T03:48:02;102584.83;;;-0.97;80.54
74790;BME280;63318;52.406;13.416;2024-01-30T03:50:30;102582.39;;;-0.98;79.85
74790;BME280;63318;52.406;13.416;2024-01-30T03:52:58;102584.33;;;-0.99;80.27
74790;BME280;63318;52.406;13.416;2024-01-30T03:55:26;102581.64;;;-1.02;80.50
74790;BME280;63318;52.406;13.416;2024-01-30T03:57:54;102581.25;;;-1.03;80.24
74790;BME280;63318;52.406;13.416;2024-01-30T04:00:23;102583.59;;;-1.04;80.04
74790;BME280;63318;52.406;13.416;2024-01-30T04:02:51;102585.19;;;-1.06;80.50
74790;BME280;63318;52.406;13.416;2024-01-30T04:05:19;102583.65;;;-1.07;80.39
74790;BME280;63318;52.406;13.416;2024-01-30T04:07:47;102581.60;;;-1.08;80.76
74790;BME280;63318;52.406;13.416;2024-01-30T04:10:16;102582.47;;;-1.10;80.44
74790;BME280;63318;52.406;13.416;2024-01-30T04:12:44;102583.33;;;-1.11;80.08
74790;BME280;63318;52.406;13.416;2024-01-30T04:15:13;102582.40;;;-1.12;80.44
74790;BME280;63318;52.406;13.416;2024-01-30T04:17:41;102583.10;;;-1.14;80.56
74790;BME280;63318;52.406;13.416;2024-01-30T04:20:14;102584.29;;;-1.15;80.51
74790;BME280;63318;52.406;13.416;2024-01-30T04:22:44;102582.95;;;-1.16;80.50
74790;BME280;63318;52.406;13.416;2024-01-30T04:25:12;102585.99;;;-1.17;80.42
74790;BME280;63318;52.406;13.416;2024-01-30T04:27:40;102584.02;;;-1.20;80.85
74790;BME280;63318;52.406;13.416;2024-01-30T04:30:10;102580.52;;;-1.21;81.09
74790;BME280;63318;52.406;13.416;2024-01-30T04:32:38;102580.25;;;-1.22;80.95
74790;BME280;63318;52.406;13.416;2024-01-30T04:35:08;102579.23;;;-1.23;80.65
74790;BME280;63318;52.406;13.416;2024-01-30T04:37:36;102580.20;;;-1.23;80.98
74790;BME280;63318;52.406;13.416;2024-01-30T04:40:06;102577.38;;;-1.24;81.18
74790;BME280;63318;52.406;13.416;2024-01-30T04:42:34;102576.14;;;-1.24;81.09
74790;BME280;63318;52.406;13.416;2024-01-30T04:45:03;102576.48;;;-1.24;80.91
74790;BME280;63318;52.406;13.416;2024-01-30T04:47:31;102575.92;;;-1.24;81.26
74790;BME280;63318;52.406;13.416;2024-01-30T04:49:59;102576.67;;;-1.24;81.36
74790;BME280;63318;52.406;13.416;2024-01-30T04:52:28;102578.48;;;-1.24;81.52
74790;BME280;63318;52.406;13.416;2024-01-30T04:54:56;102574.01;;;-1.25;81.10
74790;BME280;63318;52.406;13.416;2024-01-30T04:57:25;102572.86;;;-1.24;81.37
74790;BME280;63318;52.406;13.416;2024-01-30T04:59:53;102574.04;;;-1.25;81.42
74790;BME280;63318;52.406;13.416;2024-01-30T05:02:22;102578.09;;;-1.25;81.53
74790;BME280;63318;52.406;13.416;2024-01-30T05:04:50;102577.84;;;-1.26;81.34
74790;BME280;63318;52.406;13.416;2024-01-30T05:07:18;102576.61;;;-1.27;81.71
74790;BME280;63318;52.406;13.416;2024-01-30T05:09:47;102578.55;;;-1.28;81.67
74790;BME280;63318;52.406;13.416;2024-01-30T05:12:16;102580.80;;;-1.29;81.56
74790;BME280;63318;52.406;13.416;2024-01-30T05:14:44;102578.91;;;-1.30;81.71
74790;BME280;63318;52.406;13.416;2024-01-30T05:17:12;102573.15;;;-1.30;81.69
74790;BME280;63318;52.406;13.416;2024-01-30T05:19:41;102578.30;;;-1.31;81.48
74790;BME280;63318;52.406;13.416;2024-01-30T05:22:09;102577.75;;;-1.31;81.81
74790;BME280;63318;52.406;13.416;2024-01-30T05:24:38;102579.98;;;-1.32;81.81
74790;BME280;63318;52.406;13.416;2024-01-30T05:27:06;102580.02;;;-1.32;81.66
74790;BME280;63318;52.406;13.416;2024-01-30T05:29:35;102583.12;;;-1.32;81.97
74790;BME280;63318;52.406;13.416;2024-01-30T05:32:05;102583.54;;;-1.32;81.95
74790;BME280;63318;52.406;13.416;2024-01-30T05:34:36;102582.45;;;-1.32;82.02
74790;BME280;63318;52.406;13.416;2024-01-30T05:37:05;102581.15;;;-1.32;82.06
74790;BME280;63318;52.406;13.416;2024-01-30T05:39:33;102582.89;;;-1.32;82.26
74790;BME280;63318;52.406;13.416;2024-01-30T05:42:01;102581.20;;;-1.31;82.12
74790;BME280;63318;52.406;13.416;2024-01-30T05:44:30;102578.95;;;-1.30;81.86
74790;BME280;63318;52.406;13.416;2024-01-30T05:46:58;102577.45;;;-1.30;82.14
74790;BME280;63318;52.406;13.416;2024-01-30T05:49:26;102572.31;;;-1.29;81.81
74790;BME280;63318;52.406;13.416;2024-01-30T05:51:55;102572.14;;;-1.30;82.11
74790;BME280;63318;52.406;13.416;2024-01-30T05:54:23;102572.98;;;-1.29;82.24
74790;BME280;63318;52.406;13.416;2024-01-30T05:56:51;102574.21;;;-1.28;82.40
74790;BME280;63318;52.406;13.416;2024-01-30T05:59:19;102567.80;;;-1.28;82.22
74790;BME280;63318;52.406;13.416;2024-01-30T06:01:48;102569.23;;;-1.28;82.11
74790;BME280;63318;52.406;13.416;2024-01-30T06:04:17;102564.67;;;-1.28;82.33
74790;BME280;63318;52.406;13.416;2024-01-30T06:06:45;102564.10;;;-1.27;82.24
74790;BME280;63318;52.406;13.416;2024-01-30T06:09:13;102565.15;;;-1.27;82.40
74790;BME280;63318;52.406;13.416;2024-01-30T06:11:41;102569.29;;;-1.26;82.42
74790;BME280;63318;52.406;13.416;2024-01-30T06:14:10;102569.46;;;-1.26;82.37
74790;BME280;63318;52.406;13.416;2024-01-30T06:16:38;102566.06;;;-1.25;82.37
74790;BME280;63318;52.406;13.416;2024-01-30T06:19:06;102571.59;;;-1.24;82.31
74790;BME280;63318;52.406;13.416;2024-01-30T06:21:34;102566.63;;;-1.23;82.30
74790;BME280;63318;52.406;13.416;2024-01-30T06:24:02;102568.81;;;-1.23;82.38
74790;BME280;63318;52.406;13.416;2024-01-30T06:26:33;102566.64;;;-1.24;82.59
74790;BME280;63318;52.406;13.416;2024-01-30T06:29:02;102563.67;;;-1.23;82.47
74790;BME280;63318;52.406;13.416;2024-01-30T06:31:30;102564.05;;;-1.23;82.62
74790;BME280;63318;52.406;13.416;2024-01-30T06:34:00;102557.89;;;-1.23;82.44
74790;BME280;63318;52.406;13.416;2024-01-30T06:36:29;102554.84;;;-1.24;82.39
74790;BME280;63318;52.406;13.416;2024-01-30T06:38:57;102555.61;;;-1.24;82.50
74790;BME280;63318;52.406;13.416;2024-01-30T06:41:25;102554.89;;;-1.24;82.54
74790;BME280;63318;52.406;13.416;2024-01-30T06:43:53;102558.98;;;-1.25;82.21
74790;BME280;63318;52.406;13.416;2024-01-30T06:46:22;102554.85;;;-1.25;82.90
74790;BME280;63318;52.406;13.416;2024-01-30T06:48:51;102554.02;;;-1.27;82.72
74790;BME280;63318;52.406;13.416;2024-01-30T06:51:19;102552.41;;;-1.27;82.42
74790;BME280;63318;52.406;13.416;2024-01-30T06:53:47;102552.77;;;-1.26;82.47
74790;BME280;63318;52.406;13.416;2024-01-30T06:56:16;102551.99;;;-1.26;82.82
74790;BME280;63318;52.406;13.416;2024-01-30T06:58:44;102553.98;;;-1.24;82.67
74790;BME280;63318;52.406;13.416;2024-01-30T07:01:12;102557.33;;;-1.23;82.71
74790;BME280;63318;52.406;13.416;2024-01-30T07:03:40;102559.82;;;-1.23;82.51
74790;BME280;63318;52.406;13.416;2024-01-30T07:06:09;102560.45;;;-1.22;82.59
74790;BME280;63318;52.406;13.416;2024-01-30T07:08:37;102561.67;;;-1.19;82.96
74790;BME280;63318;52.406;13.416;2024-01-30T07:11:06;102555.27;;;-1.19;82.88
74790;BME280;63318;52.406;13.416;2024-01-30T07:13:35;102562.69;;;-1.17;82.70
74790;BME280;63318;52.406;13.416;2024-01-30T07:16:04;102562.50;;;-1.15;83.05
74790;BME280;63318;52.406;13.416;2024-01-30T07:18:33;102566.22;;;-1.12;83.08
74790;BME280;63318;52.406;13.416;2024-01-30T07:21:01;102563.22;;;-1.10;83.02
74790;BME280;63318;52.406;13.416;2024-01-30T07:23:30;102561.51;;;-1.05;83.21
74790;BME280;63318;52.406;13.416;2024-01-30T07:25:58;102561.73;;;-1.01;83.26
74790;BME280;63318;52.406;13.416;2024-01-30T07:28:26;102558.14;;;-0.96;82.89
74790;BME280;63318;52.406;13.416;2024-01-30T07:30:55;102557.99;;;-0.91;83.16
74790;BME280;63318;52.406;13.416;2024-01-30T07:33:23;102552.40;;;-0.86;82.95
74790;BME280;63318;52.406;13.416;2024-01-30T07:35:53;102550.39;;;-0.80;83.41
74790;BME280;63318;52.406;13.416;2024-01-30T07:38:22;102548.91;;;-0.75;83.30
74790;BME280;63318;52.406;13.416;2024-01-30T07:40:50;102545.77;;;-0.69;83.17
74790;BME280;63318;52.406;13.416;2024-01-30T07:43:19;102546.33;;;-0.64;83.03
74790;BME280;63318;52.406;13.416;2024-01-30T07:45:47;102544.91;;;-0.59;83.24
74790;BME280;63318;52.406;13.416;2024-01-30T07:48:15;102545.22;;;-0.53;83.55
74790;BME280;63318;52.406;13.416;2024-01-30T07:50:44;102548.64;;;-0.48;83.60
74790;BME280;63318;52.406;13.416;2024-01-30T07:53:12;102547.39;;;-0.43;83.19
74790;BME280;63318;52.406;13.416;2024-01-30T07:55:40;102547.73;;;-0.37;83.23
74790;BME280;63318;52.406;13.416;2024-01-30T07:58:09;102549.34;;;-0.32;83.38
74790;BME280;63318;52.406;13.416;2024-01-30T08:00:37;102546.45;;;-0.27;82.95
74790;BME280;63318;52.406;13.416;2024-01-30T08:03:06;102546.31;;;-0.21;82.95
74790;BME280;63318;52.406;13.416;2024-01-30T08:05:34;102542.89;;;-0.14;82.99
74790;BME280;63318;52.406;13.416;2024-01-30T08:08:03;102546.19;;;-0.07;83.08
74790;BME280;63318;52.406;13.416;2024-01-30T08:10:31;102552.65;;;0.00;83.09
74790;BME280;63318;52.406;13.416;2024-01-30T08:13:00;102550.89;;;0.07;83.37
74790;BME280;63318;52.406;13.416;2024-01-30T08:15:28;102547.27;;;0.14;83.20
74790;BME280;63318;52.406;13.416;2024-01-30T08:17:56;102547.04;;;0.21;83.50
74790;BME280;63318;52.406;13.416;2024-01-30T08:20:25;102545.84;;;0.28;83.13
74790;BME280;63318;52.406;13.416;2024-01-30T08:22:53;102543.83;;;0.35;82.88
74790;BME280;63318;52.406;13.416;2024-01-30T08:25:21;102543.89;;;0.43;82.75
74790;BME280;63318;52.406;13.416;2024-01-30T08:27:49;102535.45;;;0.50;82.95
74790;BME280;63318;52.406;13.416;2024-01-30T08:30:18;102525.30;;;0.56;82.97
74790;BME280;63318;52.406;13.416;2024-01-30T08:32:47;102523.64;;;0.63;82.82
74790;BME280;63318;52.406;13.416;2024-01-30T08:35:15;102515.43;;;0.70;82.85
74790;BME280;63318;52.406;13.416;2024-01-30T08:37:43;102520.48;;;0.77;82.52
74790;BME280;63318;52.406;13.416;2024-01-30T08:40:12;102518.64;;;0.84;82.74
74790;BME280;63318;52.406;13.416;2024-01-30T08:42:40;102516.27;;;0.91;82.50
74790;BME280;63318;52.406;13.416;2024-01-30T08:45:09;102521.31;;;0.98;82.77
74790;BME280;63318;52.406;13.416;2024-01-30T08:47:38;102519.89;;;1.05;82.34
74790;BME280;63318;52.406;13.416;2024-01-30T08:50:08;102518.54;;;1.14;82.16
74790;BME280;63318;52.406;13.416;2024-01-30T08:52:36;102514.51;;;1.22;82.08
74790;BME280;63318;52.406;13.416;2024-01-30T08:55:05;102513.75;;;1.31;82.32
74790;BME280;63318;52.406;13.416;2024-01-30T08:57:33;102518.69;;;1.39;82.19
74790;BME280;63318;52.406;13.416;2024-01-30T09:00:02;102522.86;;;1.47;82.33
74790;BME280;63318;52.406;13.416;2024-01-30T09:02:30;102521.70;;;1.54;82.34
74790;BME280;63318;52.406;13.416;2024-01-30T09:04:59;102526.24;;;1.62;82.01
74790;BME280;63318;52.406;13.416;2024-01-30T09:07:27;102518.98;;;1.70;82.52
74790;BME280;63318;52.406;13.416;2024-01-30T09:09:55;102519.63;;;1.79;82.47
74790;BME280;63318;52.406;13.416;2024-01-30T09:12:24;102516.09;;;1.87;82.39
74790;BME280;63318;52.406;13.416;2024-01-30T09:14:52;102514.91;;;1.96;82.18
74790;BME280;63318;52.406;13.416;2024-01-30T09:17:20;102515.30;;;2.05;82.16
74790;BME280;63318;52.406;13.416;2024-01-30T09:19:49;102522.47;;;2.14;82.03
74790;BME280;63318;52.406;13.416;2024-01-30T09:22:17;102524.55;;;2.23;81.96
74790;BME280;63318;52.406;13.416;2024-01-30T09:24:45;102523.52;;;2.32;81.71
74790;BME280;63318;52.406;13.416;2024-01-30T09:27:13;102523.13;;;2.42;81.59
74790;BME280;63318;52.406;13.416;2024-01-30T09:29:42;102520.11;;;2.50;81.34
74790;BME280;63318;52.406;13.416;2024-01-30T09:32:10;102518.98;;;2.59;81.13
74790;BME280;63318;52.406;13.416;2024-01-30T09:34:39;102513.64;;;2.69;80.89
74790;BME280;63318;52.406;13.416;2024-01-30T09:37:07;102514.08;;;2.78;80.85
74790;BME280;63318;52.406;13.416;2024-01-30T09:39:35;102514.98;;;2.87;80.42
74790;BME280;63318;52.406;13.416;2024-01-30T09:42:09;102511.44;;;2.96;80.43
74790;BME280;63318;52.406;13.416;2024-01-30T09:44:39;102512.75;;;3.04;80.41
74790;BME280;63318;52.406;13.416;2024-01-30T09:47:11;102508.10;;;3.12;80.15
74790;BME280;63318;52.406;13.416;2024-01-30T09:49:40;102506.39;;;3.20;79.95
74790;BME280;63318;52.406;13.416;2024-01-30T09:52:10;102505.50;;;3.29;79.68
74790;BME280;63318;52.406;13.416;2024-01-30T09:54:39;102503.16;;;3.38;79.39
74790;BME280;63318;52.406;13.416;2024-01-30T09:57:08;102501.45;;;3.46;79.47
74790;BME280;63318;52.406;13.416;2024-01-30T09:59:36;102503.09;;;3.55;79.29
74790;BME280;63318;52.406;13.416;2024-01-30T10:02:05;102501.50;;;3.64;79.01
74790;BME280;63318;52.406;13.416;2024-01-30T10:04:34;102497.34;;;3.72;78.99
74790;BME280;63318;52.406;13.416;2024-01-30T10:07:03;102500.06;;;3.81;78.74
74790;BME280;63318;52.406;13.416;2024-01-30T10:09:34;102499.79;;;3.91;78.52
74790;BME280;63318;52.406;13.416;2024-01-30T10:12:03;102497.22;;;4.00;78.35
74790;BME280;63318;52.406;13.416;2024-01-30T10:14:32;102500.00;;;4.10;78.31
74790;BME280;63318;52.406;13.416;2024-01-30T10:17:00;102493.74;;;4.18;77.90
74790;BME280;63318;52.406;13.416;2024-01-30T10:19:29;102490.92;;;4.28;77.81
74790;BME280;63318;52.406;13.416;2024-01-30T10:21:57;102493.85;;;4.38;77.36
74790;BME280;63318;52.406;13.416;2024-01-30T10:24:28;102488.14;;;4.47;77.18
74790;BME280;63318;52.406;13.416;2024-01-30T10:26:57;102486.60;;;4.56;76.83
74790;BME280;63318;52.406;13.416;2024-01-30T10:29:25;102483.55;;;4.66;76.54
74790;BME280;63318;52.406;13.416;2024-01-30T10:32:03;102480.52;;;4.75;76.52
74790;BME280;63318;52.406;13.416;2024-01-30T10:34:32;102479.41;;;4.86;75.84
74790;BME280;63318;52.406;13.416;2024-01-30T10:37:09;102476.17;;;4.98;75.44
74790;BME280;63318;52.406;13.416;2024-01-30T10:39:39;102473.29;;;5.09;75.12
74790;BME280;63318;52.406;13.416;2024-01-30T10:42:12;102475.80;;;5.18;75.06
74790;BME280;63318;52.406;13.416;2024-01-30T10:44:51;102475.41;;;5.26;74.68
74790;BME280;63318;52.406;13.416;2024-01-30T10:47:27;102473.25;;;5.36;74.00
74790;BME280;63318;52.406;13.416;2024-01-30T10:49:57;102472.88;;;5.45;73.22
74790;BME280;63318;52.406;13.416;2024-01-30T10:52:26;102475.33;;;5.53;73.19
74790;BME280;63318;52.406;13.416;2024-01-30T10:54:55;102476.23;;;5.60;73.15
74790;BME280;63318;52.406;13.416;2024-01-30T10:57:25;102475.73;;;5.67;73.43
74790;BME280;63318;52.406;13.416;2024-01-30T10:59:56;102471.73;;;5.74;72.82
74790;BME280;63318;52.406;13.416;2024-01-30T11:02:26;102472.83;;;5.79;72.84
74790;BME280;63318;52.406;13.416;2024-01-30T11:04:58;102474.20;;;5.85;72.85
74790;BME280;63318;52.406;13.416;2024-01-30T11:07:28;102471.16;;;5.89;72.61
74790;BME280;63318;52.406;13.416;2024-01-30T11:10:02;102472.09;;;5.94;72.48
74790;BME280;63318;52.406;13.416;2024-01-30T11:12:31;102469.21;;;5.97;72.13
74790;BME280;63318;52.406;13.416;2024-01-30T11:15:10;102468.48;;;6.01;72.35
74790;BME280;63318;52.406;13.416;2024-01-30T11:17:51;102469.69;;;6.04;72.18
74790;BME280;63318;52.406;13.416;2024-01-30T11:20:21;102465.09;;;6.07;71.80
74790;BME280;63318;52.406;13.416;2024-01-30T11:22:51;102466.30;;;6.11;71.51
74790;BME280;63318;52.406;13.416;2024-01-30T11:25:21;102466.48;;;6.14;71.91
74790;BME280;63318;52.406;13.416;2024-01-30T11:27:51;102463.59;;;6.18;71.70
74790;BME280;63318;52.406;13.416;2024-01-30T11:30:27;102458.10;;;6.22;71.69
74790;BME280;63318;52.406;13.416;2024-01-30T11:33:04;102455.60;;;6.26;71.67
74790;BME280;63318;52.406;13.416;2024-01-30T11:35:34;102451.77;;;6.30;71.13
74790;BME280;63318;52.406;13.416;2024-01-30T11:38:04;102443.12;;;6.34;71.05
74790;BME280;63318;52.406;13.416;2024-01-30T11:40:34;102447.47;;;6.39;71.33
74790;BME280;63318;52.406;13.416;2024-01-30T11:43:03;102450.65;;;6.42;71.29
74790;BME280;63318;52.406;13.416;2024-01-30T11:45:33;102449.30;;;6.47;71.03
74790;BME280;63318;52.406;13.416;2024-01-30T11:48:02;102449.61;;;6.51;70.64
74790;BME280;63318;52.406;13.416;2024-01-30T11:50:31;102448.58;;;6.56;70.79
74790;BME280;63318;52.406;13.416;2024-01-30T11:53:01;102448.65;;;6.61;71.20
74790;BME280;63318;52.406;13.416;2024-01-30T11:55:30;102445.69;;;6.66;71.11
74790;BME280;63318;52.406;13.416;2024-01-30T11:57:59;102447.92;;;6.72;71.15
74790;BME280;63318;52.406;13.416;2024-01-30T12:00:28;102444.58;;;6.77;70.44
74790;BME280;63318;52.406;13.416;2024-01-30T12:02:57;102437.07;;;6.82;70.94
74790;BME280;63318;52.406;13.416;2024-01-30T12:05:27;102437.46;;;6.87;71.15
74790;BME280;63318;52.406;13.416;2024-01-30T12:07:55;102428.89;;;6.92;70.54
74790;BME280;63318;52.406;13.416;2024-01-30T12:10:23;102425.67;;;6.97;70.33
74790;BME280;63318;52.406;13.416;2024-01-30T12:12:52;102423.61;;;7.01;70.45
74790;BME280;63318;52.406;13.416;2024-01-30T12:15:23;102422.34;;;7.05;70.26
74790;BME280;63318;52.406;13.416;2024-01-30T12:18:03;102423.02;;;7.09;70.07
74790;BME280;63318;52.406;13.416;2024-01-30T12:20:31;102419.46;;;7.12;69.63
74790;BME280;63318;52.406;13.416;2024-01-30T12:23:00;102423.29;;;7.15;69.53
74790;BME280;63318;52.406;13.416;2024-01-30T12:25:28;102415.60;;;7.18;69.55
74790;BME280;63318;52.406;13.416;2024-01-30T12:28:01;102414.20;;;7.21;69.48
74790;BME280;63318;52.406;13.416;2024-01-30T12:30:30;102410.67;;;7.24;69.79
74790;BME280;63318;52.406;13.416;2024-01-30T12:32:58;102409.30;;;7.27;69.91
74790;BME280;63318;52.406;13.416;2024-01-30T12:35:26;102407.05;;;7.30;69.56
74790;BME280;63318;52.406;13.416;2024-01-30T12:37:55;102404.77;;;7.33;69.42
74790;BME280;63318;52.406;13.416;2024-01-30T12:40:23;102395.05;;;7.36;69.83
74790;BME280;63318;52.406;13.416;2024-01-30T12:42:53;102388.59;;;7.39;69.28
74790;BME280;63318;52.406;13.416;2024-01-30T12:45:21;102385.97;;;7.42;69.37
74790;BME280;63318;52.406;13.416;2024-01-30T12:47:50;102382.98;;;7.45;69.49
74790;BME280;63318;52.406;13.416;2024-01-30T12:50:18;102378.90;;;7.48;69.69